sensor_id;sensor_type;location;lat;lon;timestamp;temperature;humidity
11280;DHT22;5696;50.928;6.960;2023-01-16T06:03:35;6.30;99.90
11280;DHT22;5696;50.928;6.960;2023-01-16T06:06:00;6.40;99.90
11280;DHT22;5696;50.928;6.960;2023-01-16T06:08:27;6.40;99.90
11280;DHT22;5696;50.928;6.960;2023-01-16T06:10:52;6.50;99.90
11280;DHT22;5696;50.928;6.960;2023-01-16T06:13:19;6.50;99.90
11280;DHT22;5696;50.928;6.960;2023-01-16T06:15:45;6.50;99.90
11280;DHT22;5696;50.928;6.960;2023-01-16T06:18:10;6.60;99.90
11280;DHT22;5696;50.928;6.960;2023-01-16T06:20:36;6.50;99.90
11280;DHT22;5696;50.928;6.960;2023-01-16T06:23:02;6.50;99.90
11280;DHT22;5696;50.928;6.960;2023-01-16T06:25:28;6.50;99.90
11280;DHT22;5696;50.928;6.960;2023-01-16T06:27:53;6.50;99.90
11280;DHT22;5696;50.928;6.960;2023-01-16T06:30:19;6.50;99.90
11280;DHT22;5696;50.928;6.960;2023-01-16T06:32:48;6.50;99.90
11280;DHT22;5696;50.928;6.960;2023-01-16T06:35:14;6.50;99.90
11280;DHT22;5696;50.928;6.960;2023-01-16T06:37:40;6.50;99.90
11280;DHT22;5696;50.928;6.960;2023-01-16T06:40:06;6.40;99.90
11280;DHT22;5696;50.928;6.960;2023-01-16T06:42:32;6.50;99.90
11280;DHT22;5696;50.928;6.960;2023-01-16T06:44:58;6.40;99.90
11280;DHT22;5696;50.928;6.960;2023-01-16T06:47:23;6.40;99.90
11280;DHT22;5696;50.928;6.960;2023-01-16T06:49:49;6.40;99.90
11280;DHT22;5696;50.928;6.960;2023-01-16T06:52:14;6.40;99.90
11280;DHT22;5696;50.928;6.960;2023-01-16T06:54:40;6.30;99.90
11280;DHT22;5696;50.928;6.960;2023-01-16T06:57:06;6.40;99.90
11280;DHT22;5696;50.928;6.960;2023-01-16T06:59:31;6.40;99.90
11280;DHT22;5696;50.928;6.960;2023-01-16T07:01:57;6.40;99.90
11280;DHT22;5696;50.928;6.960;2023-01-16T07:04:22;6.40;99.90
11280;DHT22;5696;50.928;6.960;2023-01-16T07:06:49;6.50;99.90
11280;DHT22;5696;50.928;6.960;2023-01-16T07:09:16;6.50;99.90
11280;DHT22;5696;50.928;6.960;2023-01-16T07:11:42;6.40;99.90
11280;DHT22;5696;50.928;6.960;2023-01-16T07:14:08;6.30;99.90
11280;DHT22;5696;50.928;6.960;2023-01-16T07:16:52;6.40;99.90
11280;DHT22;5696;50.928;6.960;2023-01-16T07:19:36;6.30;99.90
11280;DHT22;5696;50.928;6.960;2023-01-16T07:22:21;6.30;99.90
11280;DHT22;5696;50.928;6.960;2023-01-16T07:25:18;6.40;99.90
11280;DHT22;5696;50.928;6.960;2023-01-16T07:27:48;6.40;99.90
11280;DHT22;5696;50.928;6.960;2023-01-16T07:30:16;6.40;99.90
11280;DHT22;5696;50.928;6.960;2023-01-16T07:32:42;6.40;99.90
11280;DHT22;5696;50.928;6.960;2023-01-16T07:35:08;6.30;99.90
11280;DHT22;5696;50.928;6.960;2023-01-16T07:37:34;6.40;99.90
11280;DHT22;5696;50.928;6.960;2023-01-16T07:39:59;6.40;99.90
11280;DHT22;5696;50.928;6.960;2023-01-16T07:42:25;6.50;99.90
11280;DHT22;5696;50.928;6.960;2023-01-16T07:44:51;6.50;99.90
11280;DHT22;5696;50.928;6.960;2023-01-16T07:47:16;6.60;99.90
11280;DHT22;5696;50.928;6.960;2023-01-16T07:49:42;6.60;99.90
11280;DHT22;5696;50.928;6.960;2023-01-16T07:52:07;6.60;99.90
11280;DHT22;5696;50.928;6.960;2023-01-16T07:54:33;6.60;99.90
11280;DHT22;5696;50.928;6.960;2023-01-16T07:57:01;6.60;99.90
11280;DHT22;5696;50.928;6.960;2023-01-16T07:59:27;6.60;99.90
11280;DHT22;5696;50.928;6.960;2023-01-16T08:01:52;6.70;99.90
11280;DHT22;5696;50.928;6.960;2023-01-16T08:04:18;6.70;99.90
11280;DHT22;5696;50.928;6.960;2023-01-16T08:06:43;6.60;99.90
11280;DHT22;5696;50.928;6.960;2023-01-16T08:09:11;6.60;99.90
11280;DHT22;5696;50.928;6.960;2023-01-16T08:11:36;6.60;99.90
11280;DHT22;5696;50.928;6.960;2023-01-16T08:14:05;6.40;99.90
11280;DHT22;5696;50.928;6.960;2023-01-16T08:16:31;6.40;99.90
11280;DHT22;5696;50.928;6.960;2023-01-16T08:18:57;6.50;99.90
11280;DHT22;5696;50.928;6.960;2023-01-16T08:21:22;6.50;99.90
11280;DHT22;5696;50.928;6.960;2023-01-16T08:23:48;6.40;99.90
11280;DHT22;5696;50.928;6.960;2023-01-16T08:26:14;6.50;99.90
11280;DHT22;5696;50.928;6.960;2023-01-16T08:28:40;6.50;99.90
11280;DHT22;5696;50.928;6.960;2023-01-16T08:31:11;6.50;99.90
11280;DHT22;5696;50.928;6.960;2023-01-16T08:33:39;6.60;99.90
11280;DHT22;5696;50.928;6.960;2023-01-16T08:36:07;6.60;99.90
11280;DHT22;5696;50.928;6.960;2023-01-16T08:38:33;6.60;99.90
11280;DHT22;5696;50.928;6.960;2023-01-16T08:40:58;6.50;99.90
11280;DHT22;5696;50.928;6.960;2023-01-16T08:43:24;6.50;99.90
11280;DHT22;5696;50.928;6.960;2023-01-16T08:46:18;6.30;99.90
11280;DHT22;5696;50.928;6.960;2023-01-16T08:49:04;6.40;99.90
11280;DHT22;5696;50.928;6.960;2023-01-16T08:51:51;6.50;99.90
11280;DHT22;5696;50.928;6.960;2023-01-16T08:54:17;6.60;99.90
11280;DHT22;5696;50.928;6.960;2023-01-16T08:56:42;6.50;99.90
11280;DHT22;5696;50.928;6.960;2023-01-16T08:59:09;6.40;99.90
11280;DHT22;5696;50.928;6.960;2023-01-16T09:01:39;6.30;99.90
11280;DHT22;5696;50.928;6.960;2023-01-16T09:04:05;6.50;99.90
11280;DHT22;5696;50.928;6.960;2023-01-16T09:06:31;6.50;99.90
11280;DHT22;5696;50.928;6.960;2023-01-16T09:08:57;6.50;99.90
11280;DHT22;5696;50.928;6.960;2023-01-16T09:11:22;6.50;99.90
11280;DHT22;5696;50.928;6.960;2023-01-16T09:14:07;6.20;99.90
11280;DHT22;5696;50.928;6.960;2023-01-16T09:16:32;6.30;99.90
11280;DHT22;5696;50.928;6.960;2023-01-16T09:18:58;6.20;99.90
11280;DHT22;5696;50.928;6.960;2023-01-16T09:21:24;6.20;99.90
11280;DHT22;5696;50.928;6.960;2023-01-16T09:23:50;6.20;99.90
11280;DHT22;5696;50.928;6.960;2023-01-16T09:26:16;6.10;99.90
11280;DHT22;5696;50.928;6.960;2023-01-16T09:28:42;6.20;99.90
11280;DHT22;5696;50.928;6.960;2023-01-16T09:31:08;6.20;99.90
11280;DHT22;5696;50.928;6.960;2023-01-16T09:33:34;6.20;99.90
11280;DHT22;5696;50.928;6.960;2023-01-16T09:35:59;6.30;99.90
11280;DHT22;5696;50.928;6.960;2023-01-16T09:38:25;6.40;99.90
11280;DHT22;5696;50.928;6.960;2023-01-16T09:40:55;6.40;99.90
11280;DHT22;5696;50.928;6.960;2023-01-16T09:46:23;6.20;99.90
11280;DHT22;5696;50.928;6.960;2023-01-16T09:49:01;6.20;99.90
11280;DHT22;5696;50.928;6.960;2023-01-16T09:51:41;6.10;99.90
11280;DHT22;5696;50.928;6.960;2023-01-16T09:54:33;6.20;99.90
11280;DHT22;5696;50.928;6.960;2023-01-16T09:57:19;6.40;99.90
11280;DHT22;5696;50.928;6.960;2023-01-16T10:00:04;6.40;99.90
11280;DHT22;5696;50.928;6.960;2023-01-16T10:02:32;6.50;99.90
11280;DHT22;5696;50.928;6.960;2023-01-16T10:05:00;6.40;99.90
11280;DHT22;5696;50.928;6.960;2023-01-16T10:10:28;6.40;99.90
11280;DHT22;5696;50.928;6.960;2023-01-16T10:16:32;6.50;99.90
11280;DHT22;5696;50.928;6.960;2023-01-16T10:19:23;6.40;99.90
11280;DHT22;5696;50.928;6.960;2023-01-16T10:22:10;6.70;99.90
11280;DHT22;5696;50.928;6.960;2023-01-16T10:24:51;6.60;99.90
11280;DHT22;5696;50.928;6.960;2023-01-16T10:27:41;6.80;99.90
11280;DHT22;5696;50.928;6.960;2023-01-16T10:30:27;7.00;99.90
11280;DHT22;5696;50.928;6.960;2023-01-16T10:33:12;6.90;99.90
11280;DHT22;5696;50.928;6.960;2023-01-16T10:35:42;7.10;99.90
11280;DHT22;5696;50.928;6.960;2023-01-16T10:38:23;6.80;99.90
11280;DHT22;5696;50.928;6.960;2023-01-16T10:41:29;6.90;99.90
11280;DHT22;5696;50.928;6.960;2023-01-16T10:44:35;6.80;99.90
11280;DHT22;5696;50.928;6.960;2023-01-16T10:47:37;6.80;99.90
11280;DHT22;5696;50.928;6.960;2023-01-16T10:50:23;6.80;99.90
11280;DHT22;5696;50.928;6.960;2023-01-16T10:52:50;6.80;99.90
11280;DHT22;5696;50.928;6.960;2023-01-16T10:55:16;6.80;99.90
11280;DHT22;5696;50.928;6.960;2023-01-16T11:00:18;7.20;99.90
11280;DHT22;5696;50.928;6.960;2023-01-16T11:02:46;6.90;99.90
11280;DHT22;5696;50.928;6.960;2023-01-16T11:05:42;6.80;99.90
11280;DHT22;5696;50.928;6.960;2023-01-16T11:08:18;6.70;99.90
11280;DHT22;5696;50.928;6.960;2023-01-16T11:10:48;6.90;99.90
11280;DHT22;5696;50.928;6.960;2023-01-16T11:13:20;6.90;99.90
11280;DHT22;5696;50.928;6.960;2023-01-16T11:18:58;7.20;99.90
11280;DHT22;5696;50.928;6.960;2023-01-16T11:23:58;7.50;99.90
11280;DHT22;5696;50.928;6.960;2023-01-16T11:26:25;7.70;99.90
11280;DHT22;5696;50.928;6.960;2023-01-16T11:28:51;7.90;99.90
11280;DHT22;5696;50.928;6.960;2023-01-16T11:31:29;7.60;99.90
11280;DHT22;5696;50.928;6.960;2023-01-16T11:33:59;7.60;99.90
11280;DHT22;5696;50.928;6.960;2023-01-16T11:36:31;7.80;99.90
11280;DHT22;5696;50.928;6.960;2023-01-16T11:38:57;7.50;99.90
11280;DHT22;5696;50.928;6.960;2023-01-16T11:41:28;7.40;99.90
11280;DHT22;5696;50.928;6.960;2023-01-16T11:44:13;7.70;99.90
11280;DHT22;5696;50.928;6.960;2023-01-16T11:47:00;7.70;99.90
11280;DHT22;5696;50.928;6.960;2023-01-16T11:49:39;7.80;99.90
11280;DHT22;5696;50.928;6.960;2023-01-16T11:52:05;8.20;99.90
11280;DHT22;5696;50.928;6.960;2023-01-16T11:54:33;8.40;99.90
11280;DHT22;5696;50.928;6.960;2023-01-16T11:59:50;7.80;99.90
11280;DHT22;5696;50.928;6.960;2023-01-16T12:05:41;7.70;99.90
11280;DHT22;5696;50.928;6.960;2023-01-16T12:08:25;7.50;99.90
11280;DHT22;5696;50.928;6.960;2023-01-16T12:11:16;7.40;99.90
11280;DHT22;5696;50.928;6.960;2023-01-16T12:16:50;7.20;99.90
11280;DHT22;5696;50.928;6.960;2023-01-16T12:28:14;7.00;99.90
11280;DHT22;5696;50.928;6.960;2023-01-16T12:33:40;6.90;99.90
11280;DHT22;5696;50.928;6.960;2023-01-16T12:45:37;6.90;99.90
11280;DHT22;5696;50.928;6.960;2023-01-16T12:54:12;7.20;99.90
11280;DHT22;5696;50.928;6.960;2023-01-16T12:56:53;7.20;99.90
11280;DHT22;5696;50.928;6.960;2023-01-16T12:59:37;7.20;99.90
11280;DHT22;5696;50.928;6.960;2023-01-16T13:05:02;7.10;99.90
11280;DHT22;5696;50.928;6.960;2023-01-16T13:07:33;7.00;99.90
11280;DHT22;5696;50.928;6.960;2023-01-16T13:12:55;6.90;99.90
11280;DHT22;5696;50.928;6.960;2023-01-16T13:15:43;6.80;99.90
11280;DHT22;5696;50.928;6.960;2023-01-16T13:18:54;7.00;99.90
11280;DHT22;5696;50.928;6.960;2023-01-16T13:21:26;7.20;99.90
11280;DHT22;5696;50.928;6.960;2023-01-16T13:23:58;7.10;99.90
11280;DHT22;5696;50.928;6.960;2023-01-16T13:26:27;7.10;99.90
11280;DHT22;5696;50.928;6.960;2023-01-16T13:34:36;7.10;99.90
11280;DHT22;5696;50.928;6.960;2023-01-16T13:37:10;7.10;99.90
11280;DHT22;5696;50.928;6.960;2023-01-16T13:39:59;7.00;99.90
11280;DHT22;5696;50.928;6.960;2023-01-16T13:42:31;6.80;99.90
11280;DHT22;5696;50.928;6.960;2023-01-16T13:45:02;6.90;99.90
11280;DHT22;5696;50.928;6.960;2023-01-16T13:47:50;6.90;99.90
11280;DHT22;5696;50.928;6.960;2023-01-16T13:50:25;6.70;99.90
11280;DHT22;5696;50.928;6.960;2023-01-16T13:52:56;6.70;99.90
11280;DHT22;5696;50.928;6.960;2023-01-16T13:55:34;6.90;99.90
11280;DHT22;5696;50.928;6.960;2023-01-16T13:58:21;6.60;99.90
11280;DHT22;5696;50.928;6.960;2023-01-16T14:01:01;6.70;99.90
11280;DHT22;5696;50.928;6.960;2023-01-16T14:03:33;6.80;99.90
11280;DHT22;5696;50.928;6.960;2023-01-16T14:11:35;6.60;99.90
11280;DHT22;5696;50.928;6.960;2023-01-16T14:17:27;6.50;99.90
11280;DHT22;5696;50.928;6.960;2023-01-16T14:19:59;6.50;99.90
11280;DHT22;5696;50.928;6.960;2023-01-16T14:22:41;6.60;99.90
11280;DHT22;5696;50.928;6.960;2023-01-16T14:25:27;6.80;99.90
11280;DHT22;5696;50.928;6.960;2023-01-16T14:27:55;6.70;99.90
11280;DHT22;5696;50.928;6.960;2023-01-16T14:30:39;6.60;99.90
11280;DHT22;5696;50.928;6.960;2023-01-16T14:33:06;6.70;99.90
11280;DHT22;5696;50.928;6.960;2023-01-16T14:35:43;6.80;99.90
11280;DHT22;5696;50.928;6.960;2023-01-16T14:38:18;6.90;99.90
11280;DHT22;5696;50.928;6.960;2023-01-16T14:41:03;6.90;99.90
11280;DHT22;5696;50.928;6.960;2023-01-16T14:44:19;7.00;99.90
11280;DHT22;5696;50.928;6.960;2023-01-16T14:50:16;6.80;99.90
11280;DHT22;5696;50.928;6.960;2023-01-16T14:56:39;6.90;99.90
11280;DHT22;5696;50.928;6.960;2023-01-16T14:59:06;7.00;99.90
11280;DHT22;5696;50.928;6.960;2023-01-16T15:01:41;7.10;99.90
11280;DHT22;5696;50.928;6.960;2023-01-16T15:04:31;7.00;99.90
11280;DHT22;5696;50.928;6.960;2023-01-16T15:07:02;6.80;99.90
11280;DHT22;5696;50.928;6.960;2023-01-16T15:09:30;6.80;99.90
11280;DHT22;5696;50.928;6.960;2023-01-16T15:12:00;6.70;99.90
11280;DHT22;5696;50.928;6.960;2023-01-16T15:14:26;6.80;99.90
11280;DHT22;5696;50.928;6.960;2023-01-16T15:22:47;6.80;99.90
11280;DHT22;5696;50.928;6.960;2023-01-16T15:30:29;6.80;99.90
11280;DHT22;5696;50.928;6.960;2023-01-16T15:32:58;6.70;99.90
11280;DHT22;5696;50.928;6.960;2023-01-16T15:35:43;6.80;99.90
11280;DHT22;5696;50.928;6.960;2023-01-16T15:38:10;6.70;99.90
11280;DHT22;5696;50.928;6.960;2023-01-16T15:40:37;6.70;99.90
11280;DHT22;5696;50.928;6.960;2023-01-16T15:43:03;6.60;99.90
11280;DHT22;5696;50.928;6.960;2023-01-16T15:45:59;6.60;99.90
11280;DHT22;5696;50.928;6.960;2023-01-16T15:51:19;6.60;99.90
11280;DHT22;5696;50.928;6.960;2023-01-16T15:53:48;6.50;99.90
11280;DHT22;5696;50.928;6.960;2023-01-16T15:56:20;6.50;99.90
11280;DHT22;5696;50.928;6.960;2023-01-16T15:58:47;6.60;99.90
11280;DHT22;5696;50.928;6.960;2023-01-16T16:01:14;6.60;99.90
11280;DHT22;5696;50.928;6.960;2023-01-16T16:03:46;6.70;99.90
11280;DHT22;5696;50.928;6.960;2023-01-16T16:06:13;6.60;99.90
11280;DHT22;5696;50.928;6.960;2023-01-16T16:08:45;6.60;99.90
11280;DHT22;5696;50.928;6.960;2023-01-16T16:11:20;6.50;99.90
11280;DHT22;5696;50.928;6.960;2023-01-16T16:14:05;6.30;99.90
11280;DHT22;5696;50.928;6.960;2023-01-16T16:17:02;6.40;99.90
11280;DHT22;5696;50.928;6.960;2023-01-16T16:19:47;6.30;99.90
11280;DHT22;5696;50.928;6.960;2023-01-16T16:22:18;6.40;99.90
11280;DHT22;5696;50.928;6.960;2023-01-16T16:25:08;6.30;99.90
11280;DHT22;5696;50.928;6.960;2023-01-16T16:27:41;6.30;99.90
11280;DHT22;5696;50.928;6.960;2023-01-16T16:30:16;6.30;99.90
11280;DHT22;5696;50.928;6.960;2023-01-16T16:32:44;6.30;99.90
11280;DHT22;5696;50.928;6.960;2023-01-16T16:35:36;6.20;99.90
11280;DHT22;5696;50.928;6.960;2023-01-16T16:38:02;6.20;99.90
11280;DHT22;5696;50.928;6.960;2023-01-16T16:40:28;6.10;99.90
11280;DHT22;5696;50.928;6.960;2023-01-16T16:42:55;6.10;99.90
11280;DHT22;5696;50.928;6.960;2023-01-16T16:45:28;6.10;99.90
11280;DHT22;5696;50.928;6.960;2023-01-16T16:50:49;6.10;99.90
11280;DHT22;5696;50.928;6.960;2023-01-16T16:53:22;6.10;99.90
11280;DHT22;5696;50.928;6.960;2023-01-16T16:55:51;6.10;99.90
11280;DHT22;5696;50.928;6.960;2023-01-16T16:58:22;6.10;99.90
11280;DHT22;5696;50.928;6.960;2023-01-16T17:00:49;6.10;99.90
11280;DHT22;5696;50.928;6.960;2023-01-16T17:03:19;6.10;99.90
11280;DHT22;5696;50.928;6.960;2023-01-16T17:05:46;6.10;99.90
11280;DHT22;5696;50.928;6.960;2023-01-16T17:08:17;6.10;99.90
11280;DHT22;5696;50.928;6.960;2023-01-16T17:10:44;6.20;99.90
11280;DHT22;5696;50.928;6.960;2023-01-16T17:13:15;6.20;99.90
11280;DHT22;5696;50.928;6.960;2023-01-16T17:15:42;6.20;99.90
11280;DHT22;5696;50.928;6.960;2023-01-16T17:18:09;6.20;99.90
11280;DHT22;5696;50.928;6.960;2023-01-16T17:20:36;6.20;99.90
11280;DHT22;5696;50.928;6.960;2023-01-16T17:23:02;6.20;99.90
11280;DHT22;5696;50.928;6.960;2023-01-16T17:25:29;6.20;99.90
11280;DHT22;5696;50.928;6.960;2023-01-16T17:27:55;6.10;99.90
11280;DHT22;5696;50.928;6.960;2023-01-16T17:30:23;6.10;99.90
11280;DHT22;5696;50.928;6.960;2023-01-16T17:32:57;6.10;99.90
11280;DHT22;5696;50.928;6.960;2023-01-16T17:35:23;6.10;99.90
11280;DHT22;5696;50.928;6.960;2023-01-16T17:37:49;6.20;99.90
11280;DHT22;5696;50.928;6.960;2023-01-16T17:40:15;6.10;99.90
11280;DHT22;5696;50.928;6.960;2023-01-16T17:42:40;6.20;99.90
11280;DHT22;5696;50.928;6.960;2023-01-16T17:45:35;6.20;99.90
11280;DHT22;5696;50.928;6.960;2023-01-16T17:48:26;6.20;99.90
11280;DHT22;5696;50.928;6.960;2023-01-16T17:50:53;6.30;99.90
11280;DHT22;5696;50.928;6.960;2023-01-16T17:53:20;6.30;99.90
11280;DHT22;5696;50.928;6.960;2023-01-16T17:55:48;6.30;99.90
11280;DHT22;5696;50.928;6.960;2023-01-16T18:00:55;6.20;99.90
11280;DHT22;5696;50.928;6.960;2023-01-16T18:03:21;6.20;99.90
11280;DHT22;5696;50.928;6.960;2023-01-16T18:05:47;6.20;99.90
11280;DHT22;5696;50.928;6.960;2023-01-16T18:08:13;6.30;99.90
11280;DHT22;5696;50.928;6.960;2023-01-16T18:10:39;6.30;99.90
11280;DHT22;5696;50.928;6.960;2023-01-16T18:13:05;6.30;99.90
11280;DHT22;5696;50.928;6.960;2023-01-16T18:15:49;6.40;99.90
11280;DHT22;5696;50.928;6.960;2023-01-16T18:18:33;6.40;99.90
11280;DHT22;5696;50.928;6.960;2023-01-16T18:20:59;6.40;99.90
11280;DHT22;5696;50.928;6.960;2023-01-16T18:23:43;6.40;99.90
11280;DHT22;5696;50.928;6.960;2023-01-16T18:26:09;6.50;99.90
11280;DHT22;5696;50.928;6.960;2023-01-16T18:28:34;6.50;99.90
11280;DHT22;5696;50.928;6.960;2023-01-16T18:31:04;6.50;99.90
11280;DHT22;5696;50.928;6.960;2023-01-16T18:33:32;6.50;99.90
11280;DHT22;5696;50.928;6.960;2023-01-16T18:36:02;6.50;99.90
11280;DHT22;5696;50.928;6.960;2023-01-16T18:38:31;6.50;99.90
11280;DHT22;5696;50.928;6.960;2023-01-16T18:41:15;6.50;99.90
11280;DHT22;5696;50.928;6.960;2023-01-16T18:43:59;6.50;99.90
11280;DHT22;5696;50.928;6.960;2023-01-16T18:46:43;6.40;99.90
11280;DHT22;5696;50.928;6.960;2023-01-16T18:49:28;6.40;99.90
11280;DHT22;5696;50.928;6.960;2023-01-16T18:52:18;6.40;99.90
11280;DHT22;5696;50.928;6.960;2023-01-16T18:55:12;6.40;99.90
11280;DHT22;5696;50.928;6.960;2023-01-16T18:57:57;6.30;99.90
11280;DHT22;5696;50.928;6.960;2023-01-16T19:00:41;6.10;99.90
11280;DHT22;5696;50.928;6.960;2023-01-16T19:03:26;6.10;99.90
11280;DHT22;5696;50.928;6.960;2023-01-16T19:05:53;6.20;99.90
11280;DHT22;5696;50.928;6.960;2023-01-16T19:08:19;6.10;99.90
11280;DHT22;5696;50.928;6.960;2023-01-16T19:10:50;6.00;99.90
11280;DHT22;5696;50.928;6.960;2023-01-16T19:13:17;6.10;99.90
11280;DHT22;5696;50.928;6.960;2023-01-16T19:15:43;6.00;99.90
11280;DHT22;5696;50.928;6.960;2023-01-16T19:18:27;6.10;99.90
11280;DHT22;5696;50.928;6.960;2023-01-16T19:20:53;6.10;99.90
11280;DHT22;5696;50.928;6.960;2023-01-16T19:23:19;6.00;99.90
11280;DHT22;5696;50.928;6.960;2023-01-16T19:25:45;6.00;99.90
11280;DHT22;5696;50.928;6.960;2023-01-16T19:28:11;5.90;99.90
11280;DHT22;5696;50.928;6.960;2023-01-16T19:30:36;5.90;99.90
11280;DHT22;5696;50.928;6.960;2023-01-16T19:33:02;5.90;99.90
11280;DHT22;5696;50.928;6.960;2023-01-16T19:35:28;5.80;99.90
11280;DHT22;5696;50.928;6.960;2023-01-16T19:37:53;5.80;99.90
11280;DHT22;5696;50.928;6.960;2023-01-16T19:40:19;5.80;99.90
11280;DHT22;5696;50.928;6.960;2023-01-16T19:42:45;5.80;99.90
11280;DHT22;5696;50.928;6.960;2023-01-16T19:45:29;5.70;99.90
11280;DHT22;5696;50.928;6.960;2023-01-16T19:48:18;5.70;99.90
11280;DHT22;5696;50.928;6.960;2023-01-16T19:50:43;5.60;99.90
11280;DHT22;5696;50.928;6.960;2023-01-16T19:53:09;5.50;99.90
11280;DHT22;5696;50.928;6.960;2023-01-16T19:55:34;5.50;99.90
11280;DHT22;5696;50.928;6.960;2023-01-16T19:58:01;5.50;99.90
11280;DHT22;5696;50.928;6.960;2023-01-16T20:00:27;5.50;99.90
11280;DHT22;5696;50.928;6.960;2023-01-16T20:02:53;5.50;99.90
11280;DHT22;5696;50.928;6.960;2023-01-16T20:05:19;5.60;99.90
11280;DHT22;5696;50.928;6.960;2023-01-16T20:07:44;5.50;99.90
11280;DHT22;5696;50.928;6.960;2023-01-16T20:10:10;5.50;99.90
11280;DHT22;5696;50.928;6.960;2023-01-16T20:12:38;5.40;99.90
11280;DHT22;5696;50.928;6.960;2023-01-16T20:15:04;5.40;99.90
11280;DHT22;5696;50.928;6.960;2023-01-16T20:17:34;5.30;99.90
11280;DHT22;5696;50.928;6.960;2023-01-16T20:20:00;5.20;99.90
11280;DHT22;5696;50.928;6.960;2023-01-16T20:22:29;5.20;99.90
11280;DHT22;5696;50.928;6.960;2023-01-16T20:24:54;5.20;99.90
11280;DHT22;5696;50.928;6.960;2023-01-16T20:27:20;5.10;99.90
11280;DHT22;5696;50.928;6.960;2023-01-16T20:29:46;5.20;99.90
11280;DHT22;5696;50.928;6.960;2023-01-16T20:32:13;5.20;99.90
11280;DHT22;5696;50.928;6.960;2023-01-16T20:34:39;5.20;99.90
11280;DHT22;5696;50.928;6.960;2023-01-16T20:37:10;5.20;99.90
11280;DHT22;5696;50.928;6.960;2023-01-16T20:39:36;5.40;99.90
11280;DHT22;5696;50.928;6.960;2023-01-16T20:42:02;5.30;99.90
11280;DHT22;5696;50.928;6.960;2023-01-16T20:44:46;5.30;99.90
11280;DHT22;5696;50.928;6.960;2023-01-16T20:47:30;5.30;99.90
11280;DHT22;5696;50.928;6.960;2023-01-16T20:49:57;5.30;99.90
11280;DHT22;5696;50.928;6.960;2023-01-16T20:52:23;5.30;99.90
11280;DHT22;5696;50.928;6.960;2023-01-16T20:54:49;5.30;99.90
11280;DHT22;5696;50.928;6.960;2023-01-16T20:57:16;5.40;99.90
11280;DHT22;5696;50.928;6.960;2023-01-16T20:59:42;5.40;99.90
11280;DHT22;5696;50.928;6.960;2023-01-16T21:02:10;5.40;99.90
11280;DHT22;5696;50.928;6.960;2023-01-16T21:04:37;5.30;99.90
11280;DHT22;5696;50.928;6.960;2023-01-16T21:07:05;5.40;99.90
11280;DHT22;5696;50.928;6.960;2023-01-16T21:09:31;5.30;99.90
11280;DHT22;5696;50.928;6.960;2023-01-16T21:11:57;5.40;99.90
11280;DHT22;5696;50.928;6.960;2023-01-16T21:14:41;5.40;99.90
11280;DHT22;5696;50.928;6.960;2023-01-16T21:17:07;5.40;99.90
11280;DHT22;5696;50.928;6.960;2023-01-16T21:19:52;5.40;99.90
11280;DHT22;5696;50.928;6.960;2023-01-16T21:22:47;5.40;99.90
11280;DHT22;5696;50.928;6.960;2023-01-16T21:25:13;5.40;99.90
11280;DHT22;5696;50.928;6.960;2023-01-16T21:27:40;5.40;99.90
11280;DHT22;5696;50.928;6.960;2023-01-16T21:30:12;5.40;99.90
11280;DHT22;5696;50.928;6.960;2023-01-16T21:32:38;5.50;99.90
11280;DHT22;5696;50.928;6.960;2023-01-16T21:35:04;5.40;99.90
11280;DHT22;5696;50.928;6.960;2023-01-16T21:37:31;5.40;99.90
11280;DHT22;5696;50.928;6.960;2023-01-16T21:39:57;5.40;99.90
11280;DHT22;5696;50.928;6.960;2023-01-16T21:42:23;5.40;99.90
11280;DHT22;5696;50.928;6.960;2023-01-16T21:45:10;5.40;99.90
11280;DHT22;5696;50.928;6.960;2023-01-16T21:48:01;5.40;99.90
11280;DHT22;5696;50.928;6.960;2023-01-16T21:50:31;5.40;99.90
11280;DHT22;5696;50.928;6.960;2023-01-16T21:52:57;5.30;99.90
11280;DHT22;5696;50.928;6.960;2023-01-16T21:55:23;5.30;99.90
11280;DHT22;5696;50.928;6.960;2023-01-16T21:57:49;5.20;99.90
11280;DHT22;5696;50.928;6.960;2023-01-16T22:00:16;5.00;99.90
11280;DHT22;5696;50.928;6.960;2023-01-16T22:02:41;5.10;99.90
11280;DHT22;5696;50.928;6.960;2023-01-16T22:05:10;5.10;99.90
11280;DHT22;5696;50.928;6.960;2023-01-16T22:07:37;5.10;99.90
11280;DHT22;5696;50.928;6.960;2023-01-16T22:10:03;5.00;99.90
11280;DHT22;5696;50.928;6.960;2023-01-16T22:12:29;4.80;99.90
11280;DHT22;5696;50.928;6.960;2023-01-16T22:15:13;4.90;99.90
11280;DHT22;5696;50.928;6.960;2023-01-16T22:18:00;4.90;99.90
11280;DHT22;5696;50.928;6.960;2023-01-16T22:20:38;4.90;99.90
11280;DHT22;5696;50.928;6.960;2023-01-16T22:23:13;4.90;99.90
11280;DHT22;5696;50.928;6.960;2023-01-16T22:25:44;4.90;99.90
11280;DHT22;5696;50.928;6.960;2023-01-16T22:28:12;4.80;99.90
11280;DHT22;5696;50.928;6.960;2023-01-16T22:30:48;4.80;99.90
11280;DHT22;5696;50.928;6.960;2023-01-16T22:33:14;4.80;99.90
11280;DHT22;5696;50.928;6.960;2023-01-16T22:35:41;4.80;99.90
11280;DHT22;5696;50.928;6.960;2023-01-16T22:38:07;4.80;99.90
11280;DHT22;5696;50.928;6.960;2023-01-16T22:40:33;4.80;99.90
11280;DHT22;5696;50.928;6.960;2023-01-16T22:42:59;4.80;99.90
11280;DHT22;5696;50.928;6.960;2023-01-16T22:45:45;4.90;99.90
11280;DHT22;5696;50.928;6.960;2023-01-16T22:48:29;4.90;99.90
11280;DHT22;5696;50.928;6.960;2023-01-16T22:50:54;4.90;99.90
11280;DHT22;5696;50.928;6.960;2023-01-16T22:53:22;4.90;99.90
11280;DHT22;5696;50.928;6.960;2023-01-16T22:55:54;4.90;99.90
11280;DHT22;5696;50.928;6.960;2023-01-16T22:58:23;4.90;99.90
11280;DHT22;5696;50.928;6.960;2023-01-16T23:00:52;4.90;99.90
11280;DHT22;5696;50.928;6.960;2023-01-16T23:03:18;4.90;99.90
11280;DHT22;5696;50.928;6.960;2023-01-16T23:05:47;4.90;99.90
11280;DHT22;5696;50.928;6.960;2023-01-16T23:08:35;4.90;99.90
